Garfield, New Jersey
Current Conditions -  °F | °C
As of 12:51 PM on Thursday 29 Jan 2015 (Local Time) from KTEB Reporting Station
Clear Clear  
Wind Chill: 24°   Ceiling: Unl
Heat Index: 30°   Visibility: 10mi
Dew Point:   Wind: 6mph
Humidity: 40%   Direction: 200°SSW
Pressure: 30.22"   Gusts: NA
Location:  40.88°N, 74.11°W
Report Text: KTEB 291751Z 20005KT 10SM CLR M01/M13 A3022 RMK AO2 SLP234 60000 T10111133 10000 21094 58033
Loading
Personal Weather Stations






























Interactive Weather Map New forecast layout! Learn more

10-Day Weather Forecast

Advertisements
Track Severe Weather on mobile